Terminal Aerodrome Forecast
Issued by NWS Oklahoma City, OK

Home | Current Version | Previous Version | Text Only | Print | Product List | Glossary On
Versions: 1 2 3 4 5 6 7 8 9 10 11 12 13 14 15 16 17 18 19 20 21 22 23 24 25 26 27 28 29 30 31
000
FTUS44 KOUN 060520
TAFOUN
TAF
KOUN 060520Z 0606/0706 14012G20KT 5SM -TSRA BR SCT007 OVC015CB
      TEMPO 0606/0607 VRB10G20KT 1SM +TSRA BKN007CB
     FM060730 15010KT P6SM FEW007 OVC120
     FM061500 16016G23KT P6SM SCT035=

USA.gov is the U.S. government's official web portal to all federal, state and local government web resources and services.